Terminal Aerodrome Forecast
Issued by NWS

Home | Current Version | Previous Version | Graphics & Text | Print | Product List | Glossary On
Versions: 1 2 3 4 5 6 7 8 9 10 11 12 13 14 15 16 17
244
FTUS43 KTOP 212332
TAFMHK
TAF
KMHK 212332Z 2200/2224 22008KT P6SM -TSRA BKN040CB
     FM220200 18003KT P6SM VCTS BKN080CB
     FM220700 30005KT 5SM -SHRA VCTS SCT035 OVC070CB
     FM221300 36008KT P6SM BKN040=

USA.gov is the U.S. government's official web portal to all federal, state and local government web resources and services.